sensor_id;sensor_type;location;lat;lon;timestamp;P1;durP1;ratioP1;P2;durP2;ratioP2
72797;SDS011;61084;55.816;37.036;2023-03-23T00:02:29;1.95;;;1.40;;
72797;SDS011;61084;55.816;37.036;2023-03-23T00:04:58;2.17;;;1.40;;
72797;SDS011;61084;55.816;37.036;2023-03-23T00:07:25;2.75;;;1.58;;
72797;SDS011;61084;55.816;37.036;2023-03-23T00:09:53;3.85;;;1.45;;
72797;SDS011;61084;55.816;37.036;2023-03-23T00:12:21;2.42;;;1.70;;
72797;SDS011;61084;55.816;37.036;2023-03-23T00:14:54;3.65;;;1.85;;
72797;SDS011;61084;55.816;37.036;2023-03-23T00:17:21;4.07;;;1.60;;
72797;SDS011;61084;55.816;37.036;2023-03-23T00:19:48;2.80;;;1.50;;
72797;SDS011;61084;55.816;37.036;2023-03-23T00:22:15;3.10;;;1.95;;
72797;SDS011;61084;55.816;37.036;2023-03-23T00:27:08;2.65;;;1.80;;
72797;SDS011;61084;55.816;37.036;2023-03-23T00:29:34;5.18;;;1.60;;
72797;SDS011;61084;55.816;37.036;2023-03-23T00:32:00;3.20;;;1.52;;
72797;SDS011;61084;55.816;37.036;2023-03-23T00:34:30;2.13;;;1.40;;
72797;SDS011;61084;55.816;37.036;2023-03-23T00:36:59;4.70;;;1.40;;
72797;SDS011;61084;55.816;37.036;2023-03-23T00:39:26;2.47;;;1.42;;
72797;SDS011;61084;55.816;37.036;2023-03-23T00:41:53;2.45;;;1.38;;
72797;SDS011;61084;55.816;37.036;2023-03-23T00:44:32;2.45;;;1.50;;
72797;SDS011;61084;55.816;37.036;2023-03-23T00:47:01;3.63;;;1.42;;
72797;SDS011;61084;55.816;37.036;2023-03-23T00:49:30;3.92;;;1.75;;
72797;SDS011;61084;55.816;37.036;2023-03-23T00:52:04;5.75;;;1.38;;
72797;SDS011;61084;55.816;37.036;2023-03-23T00:54:31;2.75;;;1.45;;
72797;SDS011;61084;55.816;37.036;2023-03-23T00:56:59;2.78;;;1.15;;
72797;SDS011;61084;55.816;37.036;2023-03-23T00:59:25;2.47;;;1.60;;
72797;SDS011;61084;55.816;37.036;2023-03-23T01:01:51;6.50;;;1.48;;
72797;SDS011;61084;55.816;37.036;2023-03-23T01:04:18;3.10;;;1.42;;
72797;SDS011;61084;55.816;37.036;2023-03-23T01:06:48;2.45;;;1.50;;
72797;SDS011;61084;55.816;37.036;2023-03-23T01:09:16;2.53;;;1.20;;
72797;SDS011;61084;55.816;37.036;2023-03-23T01:11:42;2.58;;;1.52;;
72797;SDS011;61084;55.816;37.036;2023-03-23T01:14:10;2.00;;;1.35;;
72797;SDS011;61084;55.816;37.036;2023-03-23T01:16:36;2.58;;;1.58;;
72797;SDS011;61084;55.816;37.036;2023-03-23T01:19:02;7.82;;;1.60;;
72797;SDS011;61084;55.816;37.036;2023-03-23T01:21:28;3.67;;;1.40;;
72797;SDS011;61084;55.816;37.036;2023-03-23T01:23:55;3.00;;;1.48;;
72797;SDS011;61084;55.816;37.036;2023-03-23T01:26:22;5.15;;;1.98;;
72797;SDS011;61084;55.816;37.036;2023-03-23T01:28:50;3.17;;;1.42;;
72797;SDS011;61084;55.816;37.036;2023-03-23T01:31:18;3.00;;;1.40;;
72797;SDS011;61084;55.816;37.036;2023-03-23T01:33:46;3.80;;;1.33;;
72797;SDS011;61084;55.816;37.036;2023-03-23T01:36:13;4.53;;;1.42;;
72797;SDS011;61084;55.816;37.036;2023-03-23T01:38:42;2.05;;;1.40;;
72797;SDS011;61084;55.816;37.036;2023-03-23T01:41:10;2.90;;;1.30;;
72797;SDS011;61084;55.816;37.036;2023-03-23T01:46:40;2.10;;;1.20;;
72797;SDS011;61084;55.816;37.036;2023-03-23T01:49:08;6.90;;;1.42;;
72797;SDS011;61084;55.816;37.036;2023-03-23T01:51:38;2.05;;;1.23;;
72797;SDS011;61084;55.816;37.036;2023-03-23T01:54:09;3.10;;;1.40;;
72797;SDS011;61084;55.816;37.036;2023-03-23T01:56:41;2.80;;;1.50;;
72797;SDS011;61084;55.816;37.036;2023-03-23T01:59:13;1.88;;;1.30;;
72797;SDS011;61084;55.816;37.036;2023-03-23T02:01:44;2.88;;;1.60;;
72797;SDS011;61084;55.816;37.036;2023-03-23T02:06:42;2.67;;;1.42;;
72797;SDS011;61084;55.816;37.036;2023-03-23T02:09:14;3.55;;;1.20;;
72797;SDS011;61084;55.816;37.036;2023-03-23T02:11:44;4.15;;;1.60;;
72797;SDS011;61084;55.816;37.036;2023-03-23T02:14:12;2.40;;;1.60;;
72797;SDS011;61084;55.816;37.036;2023-03-23T02:30:14;2.40;;;1.60;;
72797;SDS011;61084;55.816;37.036;2023-03-23T02:38:21;5.30;;;1.60;;
72797;SDS011;61084;55.816;37.036;2023-03-23T02:41:04;3.13;;;1.90;;
72797;SDS011;61084;55.816;37.036;2023-03-23T02:43:33;7.28;;;1.83;;
72797;SDS011;61084;55.816;37.036;2023-03-23T02:46:04;3.78;;;1.67;;
72797;SDS011;61084;55.816;37.036;2023-03-23T02:48:32;4.22;;;1.90;;
72797;SDS011;61084;55.816;37.036;2023-03-23T02:50:59;2.90;;;1.70;;
72797;SDS011;61084;55.816;37.036;2023-03-23T02:53:27;3.67;;;2.00;;
72797;SDS011;61084;55.816;37.036;2023-03-23T02:55:56;4.15;;;1.77;;
72797;SDS011;61084;55.816;37.036;2023-03-23T02:58:27;3.20;;;1.80;;
72797;SDS011;61084;55.816;37.036;2023-03-23T03:00:53;3.88;;;1.70;;
72797;SDS011;61084;55.816;37.036;2023-03-23T03:03:23;3.47;;;1.75;;
72797;SDS011;61084;55.816;37.036;2023-03-23T03:06:16;3.92;;;2.03;;
72797;SDS011;61084;55.816;37.036;2023-03-23T03:09:00;3.38;;;1.90;;
72797;SDS011;61084;55.816;37.036;2023-03-23T03:11:46;4.55;;;1.67;;
72797;SDS011;61084;55.816;37.036;2023-03-23T03:14:23;5.13;;;2.10;;
72797;SDS011;61084;55.816;37.036;2023-03-23T03:16:57;5.15;;;1.90;;
72797;SDS011;61084;55.816;37.036;2023-03-23T03:19:29;3.65;;;1.90;;
72797;SDS011;61084;55.816;37.036;2023-03-23T03:24:38;4.65;;;1.50;;
72797;SDS011;61084;55.816;37.036;2023-03-23T03:27:10;2.72;;;1.75;;
72797;SDS011;61084;55.816;37.036;2023-03-23T03:29:51;2.75;;;1.50;;
72797;SDS011;61084;55.816;37.036;2023-03-23T03:32:24;3.97;;;1.85;;
72797;SDS011;61084;55.816;37.036;2023-03-23T03:35:00;3.75;;;1.75;;
72797;SDS011;61084;55.816;37.036;2023-03-23T03:37:35;2.80;;;1.48;;
72797;SDS011;61084;55.816;37.036;2023-03-23T03:40:05;4.63;;;1.75;;
72797;SDS011;61084;55.816;37.036;2023-03-23T03:42:39;3.13;;;1.65;;
72797;SDS011;61084;55.816;37.036;2023-03-23T03:45:08;2.95;;;1.65;;
72797;SDS011;61084;55.816;37.036;2023-03-23T03:47:35;3.83;;;1.70;;
72797;SDS011;61084;55.816;37.036;2023-03-23T03:50:02;3.10;;;1.80;;
72797;SDS011;61084;55.816;37.036;2023-03-23T03:52:29;3.65;;;1.88;;
72797;SDS011;61084;55.816;37.036;2023-03-23T03:54:54;2.65;;;1.92;;
72797;SDS011;61084;55.816;37.036;2023-03-23T03:57:22;2.80;;;1.55;;
72797;SDS011;61084;55.816;37.036;2023-03-23T03:59:56;2.55;;;1.63;;
72797;SDS011;61084;55.816;37.036;2023-03-23T04:02:41;2.72;;;1.73;;
72797;SDS011;61084;55.816;37.036;2023-03-23T04:05:09;3.47;;;2.10;;
72797;SDS011;61084;55.816;37.036;2023-03-23T04:07:36;3.63;;;2.10;;
72797;SDS011;61084;55.816;37.036;2023-03-23T04:10:09;5.35;;;1.83;;
72797;SDS011;61084;55.816;37.036;2023-03-23T04:12:39;3.20;;;1.90;;
72797;SDS011;61084;55.816;37.036;2023-03-23T04:15:23;3.60;;;1.85;;
72797;SDS011;61084;55.816;37.036;2023-03-23T04:17:50;5.32;;;1.98;;
72797;SDS011;61084;55.816;37.036;2023-03-23T04:20:16;4.53;;;2.17;;
72797;SDS011;61084;55.816;37.036;2023-03-23T04:22:47;3.90;;;2.03;;
72797;SDS011;61084;55.816;37.036;2023-03-23T04:25:19;3.60;;;2.20;;
72797;SDS011;61084;55.816;37.036;2023-03-23T04:27:51;4.65;;;2.13;;
72797;SDS011;61084;55.816;37.036;2023-03-23T04:30:25;5.47;;;2.47;;
72797;SDS011;61084;55.816;37.036;2023-03-23T04:33:08;6.32;;;2.35;;
72797;SDS011;61084;55.816;37.036;2023-03-23T04:35:42;5.18;;;1.80;;
72797;SDS011;61084;55.816;37.036;2023-03-23T04:38:29;4.95;;;2.78;;
72797;SDS011;61084;55.816;37.036;2023-03-23T04:41:02;4.25;;;2.15;;
72797;SDS011;61084;55.816;37.036;2023-03-23T04:43:52;4.07;;;2.10;;
72797;SDS011;61084;55.816;37.036;2023-03-23T04:46:26;4.22;;;1.98;;
72797;SDS011;61084;55.816;37.036;2023-03-23T04:49:01;5.03;;;2.40;;
72797;SDS011;61084;55.816;37.036;2023-03-23T04:51:32;5.22;;;2.35;;
72797;SDS011;61084;55.816;37.036;2023-03-23T04:54:10;7.75;;;2.80;;
72797;SDS011;61084;55.816;37.036;2023-03-23T04:56:39;4.13;;;2.30;;
72797;SDS011;61084;55.816;37.036;2023-03-23T04:59:10;5.68;;;3.05;;
72797;SDS011;61084;55.816;37.036;2023-03-23T05:02:04;4.65;;;2.30;;
72797;SDS011;61084;55.816;37.036;2023-03-23T05:04:30;7.40;;;2.95;;
72797;SDS011;61084;55.816;37.036;2023-03-23T05:07:12;4.13;;;2.47;;
72797;SDS011;61084;55.816;37.036;2023-03-23T05:09:46;4.53;;;2.33;;
72797;SDS011;61084;55.816;37.036;2023-03-23T05:12:13;6.72;;;2.97;;
72797;SDS011;61084;55.816;37.036;2023-03-23T05:14:53;6.70;;;2.80;;
72797;SDS011;61084;55.816;37.036;2023-03-23T05:17:22;5.15;;;2.55;;
72797;SDS011;61084;55.816;37.036;2023-03-23T05:19:52;5.63;;;2.88;;
72797;SDS011;61084;55.816;37.036;2023-03-23T05:22:38;8.00;;;2.90;;
72797;SDS011;61084;55.816;37.036;2023-03-23T05:27:36;6.78;;;3.03;;
72797;SDS011;61084;55.816;37.036;2023-03-23T05:30:15;4.82;;;2.85;;
72797;SDS011;61084;55.816;37.036;2023-03-23T05:32:43;5.95;;;3.03;;
72797;SDS011;61084;55.816;37.036;2023-03-23T05:35:33;6.50;;;2.75;;
72797;SDS011;61084;55.816;37.036;2023-03-23T05:38:00;7.03;;;3.38;;
72797;SDS011;61084;55.816;37.036;2023-03-23T05:40:28;6.85;;;3.10;;
72797;SDS011;61084;55.816;37.036;2023-03-23T05:42:59;8.57;;;3.10;;
72797;SDS011;61084;55.816;37.036;2023-03-23T05:45:40;7.30;;;2.95;;
72797;SDS011;61084;55.816;37.036;2023-03-23T05:48:07;5.95;;;3.65;;
72797;SDS011;61084;55.816;37.036;2023-03-23T05:50:34;6.25;;;3.28;;
72797;SDS011;61084;55.816;37.036;2023-03-23T05:53:02;7.13;;;3.63;;
72797;SDS011;61084;55.816;37.036;2023-03-23T05:55:32;9.18;;;3.40;;
72797;SDS011;61084;55.816;37.036;2023-03-23T05:58:18;8.88;;;3.70;;
72797;SDS011;61084;55.816;37.036;2023-03-23T06:00:46;6.30;;;3.22;;
72797;SDS011;61084;55.816;37.036;2023-03-23T06:03:23;11.55;;;4.28;;
72797;SDS011;61084;55.816;37.036;2023-03-23T06:05:59;8.38;;;3.47;;
72797;SDS011;61084;55.816;37.036;2023-03-23T06:08:33;7.80;;;3.83;;
72797;SDS011;61084;55.816;37.036;2023-03-23T06:11:03;7.65;;;3.25;;
72797;SDS011;61084;55.816;37.036;2023-03-23T06:13:35;9.48;;;3.90;;
72797;SDS011;61084;55.816;37.036;2023-03-23T06:16:06;8.63;;;3.95;;
72797;SDS011;61084;55.816;37.036;2023-03-23T06:18:50;8.48;;;3.88;;
72797;SDS011;61084;55.816;37.036;2023-03-23T06:21:30;6.75;;;3.78;;
72797;SDS011;61084;55.816;37.036;2023-03-23T06:24:07;8.18;;;3.22;;
72797;SDS011;61084;55.816;37.036;2023-03-23T06:26:35;8.10;;;3.42;;
72797;SDS011;61084;55.816;37.036;2023-03-23T06:29:06;9.43;;;3.72;;
72797;SDS011;61084;55.816;37.036;2023-03-23T06:31:39;9.00;;;3.95;;
72797;SDS011;61084;55.816;37.036;2023-03-23T06:34:08;7.38;;;3.80;;
72797;SDS011;61084;55.816;37.036;2023-03-23T06:36:53;5.95;;;3.83;;
72797;SDS011;61084;55.816;37.036;2023-03-23T06:39:30;5.45;;;3.72;;
72797;SDS011;61084;55.816;37.036;2023-03-23T06:42:11;6.57;;;3.35;;
72797;SDS011;61084;55.816;37.036;2023-03-23T06:44:42;7.93;;;3.88;;
72797;SDS011;61084;55.816;37.036;2023-03-23T06:47:11;9.85;;;3.50;;
72797;SDS011;61084;55.816;37.036;2023-03-23T06:49:44;7.70;;;4.15;;
72797;SDS011;61084;55.816;37.036;2023-03-23T06:52:17;8.40;;;3.97;;
72797;SDS011;61084;55.816;37.036;2023-03-23T06:54:44;9.85;;;3.95;;
72797;SDS011;61084;55.816;37.036;2023-03-23T06:57:11;7.38;;;4.15;;
72797;SDS011;61084;55.816;37.036;2023-03-23T06:59:37;6.93;;;4.38;;
72797;SDS011;61084;55.816;37.036;2023-03-23T07:02:04;7.53;;;3.35;;
72797;SDS011;61084;55.816;37.036;2023-03-23T07:04:31;8.88;;;3.88;;
72797;SDS011;61084;55.816;37.036;2023-03-23T07:07:12;6.88;;;3.80;;
72797;SDS011;61084;55.816;37.036;2023-03-23T07:09:47;9.13;;;3.60;;
72797;SDS011;61084;55.816;37.036;2023-03-23T07:12:17;6.93;;;3.88;;
72797;SDS011;61084;55.816;37.036;2023-03-23T07:14:46;10.68;;;3.47;;
72797;SDS011;61084;55.816;37.036;2023-03-23T07:17:12;9.88;;;3.75;;
72797;SDS011;61084;55.816;37.036;2023-03-23T07:19:49;8.48;;;3.58;;
72797;SDS011;61084;55.816;37.036;2023-03-23T07:22:16;6.05;;;3.58;;
72797;SDS011;61084;55.816;37.036;2023-03-23T07:24:48;7.45;;;3.42;;
72797;SDS011;61084;55.816;37.036;2023-03-23T07:27:19;6.00;;;3.45;;
72797;SDS011;61084;55.816;37.036;2023-03-23T07:29:46;5.80;;;3.78;;
72797;SDS011;61084;55.816;37.036;2023-03-23T07:32:20;7.47;;;3.88;;
72797;SDS011;61084;55.816;37.036;2023-03-23T07:34:46;7.35;;;4.18;;
72797;SDS011;61084;55.816;37.036;2023-03-23T07:37:26;11.95;;;3.92;;
72797;SDS011;61084;55.816;37.036;2023-03-23T07:40:00;6.05;;;3.47;;
72797;SDS011;61084;55.816;37.036;2023-03-23T07:42:33;7.85;;;3.55;;
72797;SDS011;61084;55.816;37.036;2023-03-23T07:44:59;12.55;;;3.80;;
72797;SDS011;61084;55.816;37.036;2023-03-23T07:47:25;8.23;;;3.92;;
72797;SDS011;61084;55.816;37.036;2023-03-23T07:49:53;8.15;;;3.70;;
72797;SDS011;61084;55.816;37.036;2023-03-23T07:52:35;4.97;;;3.42;;
72797;SDS011;61084;55.816;37.036;2023-03-23T07:55:03;9.10;;;3.70;;
72797;SDS011;61084;55.816;37.036;2023-03-23T07:57:50;9.10;;;4.07;;
72797;SDS011;61084;55.816;37.036;2023-03-23T08:00:18;9.75;;;3.53;;
72797;SDS011;61084;55.816;37.036;2023-03-23T08:02:47;5.57;;;3.38;;
72797;SDS011;61084;55.816;37.036;2023-03-23T08:05:25;9.93;;;4.28;;
72797;SDS011;61084;55.816;37.036;2023-03-23T08:08:11;6.25;;;3.65;;
72797;SDS011;61084;55.816;37.036;2023-03-23T08:10:56;6.50;;;3.80;;
72797;SDS011;61084;55.816;37.036;2023-03-23T08:13:42;7.20;;;3.90;;
72797;SDS011;61084;55.816;37.036;2023-03-23T08:16:31;6.00;;;3.33;;
72797;SDS011;61084;55.816;37.036;2023-03-23T08:19:17;8.40;;;3.33;;
72797;SDS011;61084;55.816;37.036;2023-03-23T08:21:48;8.52;;;3.50;;
72797;SDS011;61084;55.816;37.036;2023-03-23T08:24:33;7.65;;;3.60;;
72797;SDS011;61084;55.816;37.036;2023-03-23T08:27:15;4.90;;;3.53;;
72797;SDS011;61084;55.816;37.036;2023-03-23T08:29:44;6.57;;;3.10;;
72797;SDS011;61084;55.816;37.036;2023-03-23T08:32:43;8.75;;;3.20;;
72797;SDS011;61084;55.816;37.036;2023-03-23T08:35:26;7.80;;;3.83;;
72797;SDS011;61084;55.816;37.036;2023-03-23T08:40:50;4.70;;;3.55;;
72797;SDS011;61084;55.816;37.036;2023-03-23T08:43:43;8.43;;;3.35;;
72797;SDS011;61084;55.816;37.036;2023-03-23T08:46:36;5.35;;;3.20;;
72797;SDS011;61084;55.816;37.036;2023-03-23T08:49:37;6.45;;;3.50;;
72797;SDS011;61084;55.816;37.036;2023-03-23T08:52:23;8.07;;;3.25;;
72797;SDS011;61084;55.816;37.036;2023-03-23T08:54:57;9.07;;;3.50;;
72797;SDS011;61084;55.816;37.036;2023-03-23T08:57:42;5.82;;;2.85;;
72797;SDS011;61084;55.816;37.036;2023-03-23T09:00:28;5.70;;;3.17;;
72797;SDS011;61084;55.816;37.036;2023-03-23T09:03:17;8.20;;;2.88;;
72797;SDS011;61084;55.816;37.036;2023-03-23T09:06:17;7.82;;;2.60;;
72797;SDS011;61084;55.816;37.036;2023-03-23T09:08:50;5.03;;;3.40;;
72797;SDS011;61084;55.816;37.036;2023-03-23T09:11:16;5.28;;;3.13;;
72797;SDS011;61084;55.816;37.036;2023-03-23T09:13:42;5.70;;;2.65;;
72797;SDS011;61084;55.816;37.036;2023-03-23T09:16:08;4.82;;;2.85;;
72797;SDS011;61084;55.816;37.036;2023-03-23T09:18:34;5.38;;;2.83;;
72797;SDS011;61084;55.816;37.036;2023-03-23T09:21:01;5.20;;;2.90;;
72797;SDS011;61084;55.816;37.036;2023-03-23T09:23:28;5.20;;;2.80;;
72797;SDS011;61084;55.816;37.036;2023-03-23T09:25:55;8.48;;;2.90;;
72797;SDS011;61084;55.816;37.036;2023-03-23T09:28:21;4.22;;;2.92;;
72797;SDS011;61084;55.816;37.036;2023-03-23T09:30:47;5.65;;;2.45;;
72797;SDS011;61084;55.816;37.036;2023-03-23T09:33:13;7.30;;;2.83;;
72797;SDS011;61084;55.816;37.036;2023-03-23T09:35:40;7.97;;;2.67;;
72797;SDS011;61084;55.816;37.036;2023-03-23T09:38:07;6.85;;;2.33;;
72797;SDS011;61084;55.816;37.036;2023-03-23T09:48:27;4.07;;;2.30;;
72797;SDS011;61084;55.816;37.036;2023-03-23T09:51:01;3.67;;;2.28;;
72797;SDS011;61084;55.816;37.036;2023-03-23T09:53:36;5.05;;;2.28;;
72797;SDS011;61084;55.816;37.036;2023-03-23T09:56:13;6.05;;;2.25;;
72797;SDS011;61084;55.816;37.036;2023-03-23T10:01:19;3.97;;;1.80;;
72797;SDS011;61084;55.816;37.036;2023-03-23T10:03:52;4.57;;;2.22;;
72797;SDS011;61084;55.816;37.036;2023-03-23T10:06:27;3.58;;;2.22;;
72797;SDS011;61084;55.816;37.036;2023-03-23T10:08:53;3.83;;;2.58;;
72797;SDS011;61084;55.816;37.036;2023-03-23T10:12:00;4.00;;;2.20;;
72797;SDS011;61084;55.816;37.036;2023-03-23T10:14:24;4.15;;;2.47;;
72797;SDS011;61084;55.816;37.036;2023-03-23T10:19:54;2.47;;;1.83;;
72797;SDS011;61084;55.816;37.036;2023-03-23T10:22:37;3.55;;;2.25;;
72797;SDS011;61084;55.816;37.036;2023-03-23T10:30:27;5.30;;;2.53;;
72797;SDS011;61084;55.816;37.036;2023-03-23T10:33:00;3.20;;;2.42;;
72797;SDS011;61084;55.816;37.036;2023-03-23T10:35:42;4.00;;;2.28;;
72797;SDS011;61084;55.816;37.036;2023-03-23T10:41:45;3.53;;;2.35;;
72797;SDS011;61084;55.816;37.036;2023-03-23T10:44:18;6.07;;;2.35;;
72797;SDS011;61084;55.816;37.036;2023-03-23T10:47:03;6.40;;;2.75;;
72797;SDS011;61084;55.816;37.036;2023-03-23T10:49:50;3.88;;;2.45;;
72797;SDS011;61084;55.816;37.036;2023-03-23T10:52:30;6.43;;;2.42;;
72797;SDS011;61084;55.816;37.036;2023-03-23T10:57:39;4.18;;;2.28;;
72797;SDS011;61084;55.816;37.036;2023-03-23T11:00:23;5.10;;;2.15;;
72797;SDS011;61084;55.816;37.036;2023-03-23T11:05:41;6.22;;;2.35;;
72797;SDS011;61084;55.816;37.036;2023-03-23T11:08:15;5.68;;;2.10;;
72797;SDS011;61084;55.816;37.036;2023-03-23T11:10:54;5.43;;;2.00;;
72797;SDS011;61084;55.816;37.036;2023-03-23T11:13:20;4.45;;;2.38;;
72797;SDS011;61084;55.816;37.036;2023-03-23T11:15:48;4.53;;;2.53;;
72797;SDS011;61084;55.816;37.036;2023-03-23T11:18:19;4.97;;;2.65;;
72797;SDS011;61084;55.816;37.036;2023-03-23T11:20:46;5.72;;;2.50;;
72797;SDS011;61084;55.816;37.036;2023-03-23T11:28:33;5.53;;;2.65;;
72797;SDS011;61084;55.816;37.036;2023-03-23T11:31:03;5.70;;;2.33;;
72797;SDS011;61084;55.816;37.036;2023-03-23T11:33:35;6.85;;;3.42;;
72797;SDS011;61084;55.816;37.036;2023-03-23T11:36:08;4.78;;;2.50;;
72797;SDS011;61084;55.816;37.036;2023-03-23T11:38:34;4.22;;;2.58;;
72797;SDS011;61084;55.816;37.036;2023-03-23T11:41:00;3.97;;;2.50;;
72797;SDS011;61084;55.816;37.036;2023-03-23T11:43:26;2.60;;;2.10;;
72797;SDS011;61084;55.816;37.036;2023-03-23T11:48:43;4.55;;;2.42;;
72797;SDS011;61084;55.816;37.036;2023-03-23T11:54:09;6.40;;;2.20;;
72797;SDS011;61084;55.816;37.036;2023-03-23T11:56:44;3.97;;;2.30;;
72797;SDS011;61084;55.816;37.036;2023-03-23T11:59:25;4.78;;;2.40;;
72797;SDS011;61084;55.816;37.036;2023-03-23T12:01:55;3.55;;;2.13;;
72797;SDS011;61084;55.816;37.036;2023-03-23T12:05:16;3.00;;;1.90;;
72797;SDS011;61084;55.816;37.036;2023-03-23T12:07:42;3.65;;;2.17;;
72797;SDS011;61084;55.816;37.036;2023-03-23T12:27:30;3.45;;;1.98;;
72797;SDS011;61084;55.816;37.036;2023-03-23T12:30:11;4.25;;;2.47;;
72797;SDS011;61084;55.816;37.036;2023-03-23T12:35:36;4.10;;;2.25;;
72797;SDS011;61084;55.816;37.036;2023-03-23T12:40:51;3.65;;;2.50;;
72797;SDS011;61084;55.816;37.036;2023-03-23T12:49:52;5.38;;;2.58;;
72797;SDS011;61084;55.816;37.036;2023-03-23T12:52:45;5.22;;;2.15;;
72797;SDS011;61084;55.816;37.036;2023-03-23T12:55:21;6.10;;;2.28;;
72797;SDS011;61084;55.816;37.036;2023-03-23T12:57:59;4.55;;;2.15;;
72797;SDS011;61084;55.816;37.036;2023-03-23T13:00:58;3.72;;;2.30;;
72797;SDS011;61084;55.816;37.036;2023-03-23T13:09:05;4.72;;;2.20;;
72797;SDS011;61084;55.816;37.036;2023-03-23T13:11:33;5.10;;;2.40;;
72797;SDS011;61084;55.816;37.036;2023-03-23T13:19:26;3.15;;;2.20;;
72797;SDS011;61084;55.816;37.036;2023-03-23T13:22:04;4.13;;;1.90;;
72797;SDS011;61084;55.816;37.036;2023-03-23T13:24:37;7.70;;;3.08;;
72797;SDS011;61084;55.816;37.036;2023-03-23T13:27:15;3.42;;;2.35;;
72797;SDS011;61084;55.816;37.036;2023-03-23T13:29:44;5.32;;;2.30;;
72797;SDS011;61084;55.816;37.036;2023-03-23T13:32:14;4.32;;;2.50;;
72797;SDS011;61084;55.816;37.036;2023-03-23T13:34:42;5.13;;;2.35;;
72797;SDS011;61084;55.816;37.036;2023-03-23T13:37:20;3.38;;;2.25;;
72797;SDS011;61084;55.816;37.036;2023-03-23T13:42:20;3.20;;;1.98;;
72797;SDS011;61084;55.816;37.036;2023-03-23T13:58:26;5.55;;;2.55;;
72797;SDS011;61084;55.816;37.036;2023-03-23T14:03:05;4.00;;;2.38;;
72797;SDS011;61084;55.816;37.036;2023-03-23T14:11:01;4.05;;;2.42;;
72797;SDS011;61084;55.816;37.036;2023-03-23T14:16:32;4.10;;;2.58;;
72797;SDS011;61084;55.816;37.036;2023-03-23T14:19:04;7.55;;;3.03;;
72797;SDS011;61084;55.816;37.036;2023-03-23T14:21:59;9.52;;;3.05;;
72797;SDS011;61084;55.816;37.036;2023-03-23T14:24:33;7.43;;;3.20;;
72797;SDS011;61084;55.816;37.036;2023-03-23T14:29:37;4.60;;;2.72;;
72797;SDS011;61084;55.816;37.036;2023-03-23T14:32:05;4.47;;;2.38;;
72797;SDS011;61084;55.816;37.036;2023-03-23T14:34:39;3.65;;;2.22;;
72797;SDS011;61084;55.816;37.036;2023-03-23T14:37:04;6.57;;;2.42;;
72797;SDS011;61084;55.816;37.036;2023-03-23T14:39:37;5.55;;;1.90;;
72797;SDS011;61084;55.816;37.036;2023-03-23T14:42:05;3.75;;;2.08;;
72797;SDS011;61084;55.816;37.036;2023-03-23T14:44:40;4.78;;;2.25;;
72797;SDS011;61084;55.816;37.036;2023-03-23T14:47:30;4.13;;;2.33;;
72797;SDS011;61084;55.816;37.036;2023-03-23T14:49:57;4.70;;;2.30;;
72797;SDS011;61084;55.816;37.036;2023-03-23T14:52:26;4.32;;;2.55;;
72797;SDS011;61084;55.816;37.036;2023-03-23T14:54:53;7.50;;;2.70;;
72797;SDS011;61084;55.816;37.036;2023-03-23T14:57:27;4.50;;;2.58;;
72797;SDS011;61084;55.816;37.036;2023-03-23T14:59:54;5.57;;;2.63;;
72797;SDS011;61084;55.816;37.036;2023-03-23T15:02:28;7.60;;;2.22;;
72797;SDS011;61084;55.816;37.036;2023-03-23T15:07:54;7.97;;;2.38;;
72797;SDS011;61084;55.816;37.036;2023-03-23T15:10:26;4.63;;;2.47;;
72797;SDS011;61084;55.816;37.036;2023-03-23T15:12:52;5.20;;;3.13;;
72797;SDS011;61084;55.816;37.036;2023-03-23T15:15:30;7.00;;;2.78;;
72797;SDS011;61084;55.816;37.036;2023-03-23T15:18:05;5.78;;;2.50;;
72797;SDS011;61084;55.816;37.036;2023-03-23T15:20:48;6.75;;;2.67;;
72797;SDS011;61084;55.816;37.036;2023-03-23T15:23:15;7.93;;;2.55;;
72797;SDS011;61084;55.816;37.036;2023-03-23T15:25:54;6.93;;;2.90;;
72797;SDS011;61084;55.816;37.036;2023-03-23T15:28:28;4.88;;;2.47;;
72797;SDS011;61084;55.816;37.036;2023-03-23T15:31:04;6.10;;;2.75;;
72797;SDS011;61084;55.816;37.036;2023-03-23T15:33:35;6.35;;;2.63;;
72797;SDS011;61084;55.816;37.036;2023-03-23T15:36:06;6.93;;;2.92;;
72797;SDS011;61084;55.816;37.036;2023-03-23T15:38:34;9.52;;;2.83;;
72797;SDS011;61084;55.816;37.036;2023-03-23T15:41:03;5.95;;;2.97;;
72797;SDS011;61084;55.816;37.036;2023-03-23T15:43:32;4.28;;;2.80;;
72797;SDS011;61084;55.816;37.036;2023-03-23T15:49:04;6.95;;;3.28;;
72797;SDS011;61084;55.816;37.036;2023-03-23T15:51:35;4.32;;;3.05;;
72797;SDS011;61084;55.816;37.036;2023-03-23T15:54:02;8.57;;;3.50;;
72797;SDS011;61084;55.816;37.036;2023-03-23T15:56:28;10.55;;;3.85;;
72797;SDS011;61084;55.816;37.036;2023-03-23T15:58:56;8.93;;;4.15;;
72797;SDS011;61084;55.816;37.036;2023-03-23T16:01:24;7.28;;;3.50;;
72797;SDS011;61084;55.816;37.036;2023-03-23T16:07:06;9.93;;;2.83;;
72797;SDS011;61084;55.816;37.036;2023-03-23T16:09:32;6.32;;;2.70;;
72797;SDS011;61084;55.816;37.036;2023-03-23T16:11:58;6.15;;;2.95;;
72797;SDS011;61084;55.816;37.036;2023-03-23T16:14:24;5.88;;;3.03;;
72797;SDS011;61084;55.816;37.036;2023-03-23T16:16:50;6.63;;;3.08;;
72797;SDS011;61084;55.816;37.036;2023-03-23T16:19:17;5.93;;;3.63;;
72797;SDS011;61084;55.816;37.036;2023-03-23T16:21:44;5.75;;;3.25;;
72797;SDS011;61084;55.816;37.036;2023-03-23T16:24:10;7.10;;;3.80;;
72797;SDS011;61084;55.816;37.036;2023-03-23T16:26:36;10.25;;;3.67;;
72797;SDS011;61084;55.816;37.036;2023-03-23T16:29:12;9.52;;;3.20;;
72797;SDS011;61084;55.816;37.036;2023-03-23T16:31:39;9.35;;;3.00;;
72797;SDS011;61084;55.816;37.036;2023-03-23T16:34:05;6.78;;;3.05;;
72797;SDS011;61084;55.816;37.036;2023-03-23T16:36:31;5.03;;;2.65;;
72797;SDS011;61084;55.816;37.036;2023-03-23T16:38:57;4.90;;;3.13;;
72797;SDS011;61084;55.816;37.036;2023-03-23T16:41:23;6.88;;;3.28;;
72797;SDS011;61084;55.816;37.036;2023-03-23T16:43:49;5.75;;;3.05;;
72797;SDS011;61084;55.816;37.036;2023-03-23T16:46:15;8.02;;;3.50;;
72797;SDS011;61084;55.816;37.036;2023-03-23T16:48:41;7.75;;;4.03;;
72797;SDS011;61084;55.816;37.036;2023-03-23T16:51:07;6.70;;;3.22;;
72797;SDS011;61084;55.816;37.036;2023-03-23T16:53:33;9.15;;;3.05;;
72797;SDS011;61084;55.816;37.036;2023-03-23T16:56:00;9.35;;;3.17;;
72797;SDS011;61084;55.816;37.036;2023-03-23T16:58:26;6.95;;;2.97;;
72797;SDS011;61084;55.816;37.036;2023-03-23T17:00:52;5.38;;;2.60;;
72797;SDS011;61084;55.816;37.036;2023-03-23T17:03:18;11.52;;;3.60;;
72797;SDS011;61084;55.816;37.036;2023-03-23T17:05:46;5.93;;;3.30;;
72797;SDS011;61084;55.816;37.036;2023-03-23T17:08:13;8.52;;;3.33;;
72797;SDS011;61084;55.816;37.036;2023-03-23T17:10:40;6.47;;;3.10;;
72797;SDS011;61084;55.816;37.036;2023-03-23T17:13:06;4.68;;;2.80;;
72797;SDS011;61084;55.816;37.036;2023-03-23T17:15:34;7.72;;;3.00;;
72797;SDS011;61084;55.816;37.036;2023-03-23T17:18:08;6.60;;;3.08;;
72797;SDS011;61084;55.816;37.036;2023-03-23T17:20:34;7.65;;;2.53;;
72797;SDS011;61084;55.816;37.036;2023-03-23T17:23:00;6.72;;;3.42;;
72797;SDS011;61084;55.816;37.036;2023-03-23T17:25:26;6.07;;;3.50;;
72797;SDS011;61084;55.816;37.036;2023-03-23T17:27:55;6.95;;;3.20;;
72797;SDS011;61084;55.816;37.036;2023-03-23T17:30:21;9.13;;;3.17;;
72797;SDS011;61084;55.816;37.036;2023-03-23T17:32:47;8.50;;;3.25;;
72797;SDS011;61084;55.816;37.036;2023-03-23T17:35:13;7.00;;;3.67;;
72797;SDS011;61084;55.816;37.036;2023-03-23T17:37:40;7.88;;;2.80;;